createdAt,value
2022-10-16T00:02:18.191Z,13.62
2022-10-16T00:05:21.392Z,13.65
2022-10-16T00:08:27.143Z,13.65
2022-10-16T00:11:35.086Z,13.66
2022-10-16T00:14:38.105Z,13.69
2022-10-16T00:17:41.238Z,13.96
2022-10-16T00:20:44.265Z,13.91
2022-10-16T00:24:09.638Z,13.89
2022-10-16T00:27:13.972Z,13.88
2022-10-16T00:30:19.817Z,13.88
2022-10-16T00:33:23.105Z,13.91
2022-10-16T00:36:28.124Z,13.94
2022-10-16T00:39:31.152Z,13.95
2022-10-16T00:42:35.573Z,14.00
2022-10-16T00:45:38.581Z,14.03
2022-10-16T00:48:41.829Z,14.11
2022-10-16T00:51:48.170Z,14.16
2022-10-16T00:54:52.592Z,14.21
2022-10-16T00:57:57.610Z,14.20
2022-10-16T01:01:00.650Z,14.34
2022-10-16T01:04:03.754Z,14.31
2022-10-16T01:07:15.113Z,14.29
2022-10-16T01:10:29.423Z,14.26
2022-10-16T01:13:40.512Z,14.25
2022-10-16T01:16:51.517Z,14.24
2022-10-16T01:20:10.621Z,14.23
2022-10-16T01:23:30.514Z,14.21
2022-10-16T01:27:02.400Z,14.11
2022-10-16T01:30:13.777Z,13.98
2022-10-16T01:33:22.701Z,13.97
2022-10-16T01:36:31.173Z,13.89
2022-10-16T01:39:40.299Z,13.91
2022-10-16T01:42:50.812Z,13.87
2022-10-16T01:45:54.841Z,13.88
2022-10-16T01:48:59.011Z,13.87
2022-10-16T01:52:07.916Z,13.86
2022-10-16T01:55:18.294Z,13.88
2022-10-16T01:58:24.585Z,13.87
2022-10-16T02:01:31.082Z,13.80
2022-10-16T02:04:38.673Z,13.88
2022-10-16T02:07:44.968Z,13.88
2022-10-16T02:10:48.072Z,14.02
2022-10-16T02:14:00.676Z,14.03
2022-10-16T02:17:03.681Z,14.12
2022-10-16T02:20:07.888Z,14.19
2022-10-16T02:23:18.480Z,14.21
2022-10-16T02:26:31.686Z,14.27
2022-10-16T02:29:40.963Z,14.29
2022-10-16T02:32:47.295Z,14.30
2022-10-16T02:35:53.033Z,14.45
2022-10-16T02:38:56.364Z,14.52
2022-10-16T02:41:59.393Z,14.50
2022-10-16T02:45:04.563Z,14.62
2022-10-16T02:48:07.993Z,14.62
2022-10-16T02:51:10.977Z,14.53
2022-10-16T02:54:14.000Z,14.58
2022-10-16T02:57:17.081Z,14.59
2022-10-16T03:00:22.508Z,14.71
2022-10-16T03:03:25.471Z,14.65
2022-10-16T03:06:28.511Z,14.65
2022-10-16T03:09:31.537Z,14.74
2022-10-16T03:12:34.550Z,14.65
2022-10-16T03:15:38.853Z,14.53
2022-10-16T03:18:41.860Z,14.45
2022-10-16T03:21:45.226Z,14.41
2022-10-16T03:24:48.282Z,14.36
2022-10-16T03:27:51.292Z,14.31
2022-10-16T03:30:55.690Z,14.23
2022-10-16T03:33:59.007Z,14.21
2022-10-16T03:37:02.003Z,14.24
2022-10-16T03:40:06.118Z,14.16
2022-10-16T03:43:09.113Z,14.11
2022-10-16T03:46:13.630Z,14.07
2022-10-16T03:49:16.862Z,14.01
2022-10-16T03:52:20.830Z,13.98
2022-10-16T03:55:23.894Z,14.01
2022-10-16T03:58:27.034Z,13.91
2022-10-16T04:01:31.443Z,13.96
2022-10-16T04:04:34.465Z,14.07
2022-10-16T04:07:37.431Z,14.02
2022-10-16T04:10:42.126Z,13.96
2022-10-16T04:13:45.280Z,14.05
2022-10-16T04:16:49.590Z,14.04
2022-10-16T04:19:52.573Z,14.02
2022-10-16T04:22:55.837Z,14.03
2022-10-16T04:25:59.013Z,13.97
2022-10-16T04:29:02.123Z,13.97
2022-10-16T04:32:06.589Z,13.95
2022-10-16T04:35:10.698Z,13.91
2022-10-16T04:38:14.037Z,13.94
2022-10-16T04:41:17.104Z,14.00
2022-10-16T04:44:20.284Z,13.96
2022-10-16T04:47:25.047Z,13.90
2022-10-16T04:50:28.821Z,13.89
2022-10-16T04:53:41.752Z,13.88
2022-10-16T04:56:48.238Z,13.81
2022-10-16T04:59:51.860Z,13.77
2022-10-16T05:02:56.425Z,13.77
2022-10-16T05:06:01.602Z,13.76
2022-10-16T05:09:05.021Z,13.68
2022-10-16T05:12:17.228Z,13.63
2022-10-16T05:15:22.468Z,13.54
2022-10-16T05:18:26.838Z,13.51
2022-10-16T05:21:29.842Z,13.46
2022-10-16T05:24:33.120Z,13.53
2022-10-16T05:27:36.537Z,13.51
2022-10-16T05:30:40.028Z,13.49
2022-10-16T05:33:45.024Z,13.53
2022-10-16T05:36:51.110Z,13.55
2022-10-16T05:39:54.215Z,13.64
2022-10-16T05:42:59.389Z,13.65
2022-10-16T05:46:05.619Z,13.66
2022-10-16T05:49:10.546Z,13.64
2022-10-16T05:52:13.566Z,13.67
2022-10-16T05:55:19.362Z,13.68
2022-10-16T05:58:23.149Z,13.74
2022-10-16T06:01:26.255Z,13.71
2022-10-16T06:04:30.741Z,13.70
2022-10-16T06:07:37.433Z,13.66
2022-10-16T06:10:42.457Z,13.68
2022-10-16T06:13:46.918Z,13.74
2022-10-16T06:16:50.141Z,13.74
2022-10-16T06:19:56.611Z,13.85
2022-10-16T06:23:15.114Z,13.90
2022-10-16T06:26:21.854Z,13.93
2022-10-16T06:29:24.965Z,14.00
2022-10-16T06:32:29.244Z,14.08
2022-10-16T06:35:36.258Z,14.15
2022-10-16T06:38:40.307Z,14.19
2022-10-16T06:43:03.510Z,14.28
2022-10-16T06:46:09.801Z,14.31
2022-10-16T06:49:12.877Z,14.35
2022-10-16T06:52:17.630Z,14.41
2022-10-16T06:55:29.816Z,14.45
2022-10-16T06:58:33.235Z,14.49
2022-10-16T07:01:36.534Z,14.55
2022-10-16T07:04:39.754Z,14.59
2022-10-16T07:07:52.381Z,14.65
2022-10-16T07:11:02.681Z,14.76
2022-10-16T07:14:22.487Z,14.87
2022-10-16T07:17:27.119Z,15.00
2022-10-16T07:20:30.354Z,15.09
2022-10-16T07:23:35.698Z,15.20
2022-10-16T07:26:40.582Z,15.29
2022-10-16T07:29:43.893Z,15.31
2022-10-16T07:32:46.891Z,15.37
2022-10-16T07:35:51.656Z,15.47
2022-10-16T07:38:58.865Z,15.58
2022-10-16T07:42:03.265Z,15.63
2022-10-16T07:45:08.343Z,15.70
2022-10-16T07:48:11.944Z,15.77
2022-10-16T07:51:17.536Z,15.80
2022-10-16T07:54:22.105Z,15.91
2022-10-16T07:57:25.293Z,15.93
2022-10-16T08:00:30.828Z,15.99
2022-10-16T08:03:34.478Z,16.09
2022-10-16T08:06:44.150Z,16.17
2022-10-16T08:09:52.472Z,16.23
2022-10-16T08:12:58.081Z,16.29
2022-10-16T08:16:08.161Z,16.36
2022-10-16T08:19:14.438Z,16.41
2022-10-16T08:22:17.759Z,16.45
2022-10-16T08:25:24.350Z,16.53
2022-10-16T08:28:27.535Z,16.53
2022-10-16T08:31:30.861Z,16.68
2022-10-16T08:34:34.002Z,16.74
2022-10-16T08:37:37.683Z,16.80
2022-10-16T08:40:52.775Z,16.89
2022-10-16T08:44:27.765Z,16.93
2022-10-16T08:47:59.605Z,16.98
2022-10-16T08:51:05.017Z,16.95
2022-10-16T08:54:27.027Z,17.01
2022-10-16T08:57:34.995Z,17.05
2022-10-16T09:00:38.070Z,17.10
2022-10-16T09:04:03.050Z,17.12
2022-10-16T09:07:12.661Z,17.08
2022-10-16T09:10:35.066Z,17.20
2022-10-16T09:13:50.975Z,17.36
2022-10-16T09:17:00.897Z,17.53
2022-10-16T09:20:22.055Z,17.64
2022-10-16T09:23:29.207Z,17.75
2022-10-16T09:26:32.267Z,17.81
2022-10-16T09:29:36.673Z,17.91
2022-10-16T09:32:41.066Z,17.92
2022-10-16T09:35:51.220Z,17.99
2022-10-16T09:39:06.881Z,18.06
2022-10-16T09:42:17.265Z,18.08
2022-10-16T09:45:28.070Z,18.19
2022-10-16T09:49:15.877Z,18.48
2022-10-16T09:52:34.378Z,18.55
2022-10-16T09:55:37.822Z,18.53
2022-10-16T09:58:44.106Z,18.48
2022-10-16T10:01:53.034Z,18.43
2022-10-16T10:04:57.021Z,18.45
2022-10-16T10:08:06.983Z,18.66
2022-10-16T10:11:13.975Z,18.76
2022-10-16T10:14:39.657Z,18.90
2022-10-16T10:17:51.849Z,18.85
2022-10-16T10:21:02.066Z,18.90
2022-10-16T10:24:06.131Z,18.91
2022-10-16T10:27:31.537Z,19.00
2022-10-16T10:35:14.931Z,19.03
2022-10-16T10:38:36.068Z,19.21
2022-10-16T10:42:11.450Z,19.26
2022-10-16T10:45:22.913Z,19.24
2022-10-16T10:48:53.082Z,19.59
2022-10-16T10:52:12.144Z,19.91
2022-10-16T10:55:26.707Z,19.93
2022-10-16T10:58:53.850Z,19.92
2022-10-16T11:02:01.072Z,19.76
2022-10-16T11:05:43.389Z,20.07
2022-10-16T11:08:53.181Z,20.18
2022-10-16T11:12:03.462Z,20.55
2022-10-16T11:15:14.811Z,20.77
2022-10-16T11:18:24.140Z,20.86
2022-10-16T11:21:31.206Z,20.83
2022-10-16T11:24:45.067Z,20.50
2022-10-16T11:27:53.346Z,20.20
2022-10-16T11:31:02.901Z,19.99
2022-10-16T11:34:12.963Z,19.85
2022-10-16T11:37:21.750Z,19.74
2022-10-16T11:40:30.649Z,19.99
2022-10-16T11:43:39.266Z,20.13
2022-10-16T11:46:59.198Z,20.49
2022-10-16T11:50:23.110Z,20.92
2022-10-16T11:53:45.029Z,20.98
2022-10-16T11:56:54.053Z,20.91
2022-10-16T12:00:00.962Z,20.69
2022-10-16T12:03:16.994Z,20.62
2022-10-16T12:06:33.814Z,20.55
2022-10-16T12:09:41.335Z,20.44
2022-10-16T12:12:47.304Z,20.31
2022-10-16T12:16:05.647Z,20.29
2022-10-16T12:19:16.126Z,20.38
2022-10-16T12:22:20.792Z,20.65
2022-10-16T12:25:29.439Z,21.07
2022-10-16T12:28:35.470Z,21.31
2022-10-16T12:31:49.678Z,21.47
2022-10-16T12:35:02.637Z,21.45
2022-10-16T12:38:17.657Z,21.72
2022-10-16T12:41:29.517Z,21.74
2022-10-16T12:44:37.976Z,21.86
2022-10-16T12:47:52.266Z,21.73
2022-10-16T12:50:55.230Z,22.06
2022-10-16T12:54:02.496Z,22.37
2022-10-16T12:57:36.923Z,22.18
2022-10-16T13:00:49.022Z,21.66
2022-10-16T13:04:35.580Z,21.91
2022-10-16T13:08:01.278Z,22.17
2022-10-16T13:11:13.897Z,21.60
2022-10-16T13:14:41.068Z,21.46
2022-10-16T13:17:57.544Z,21.73
2022-10-16T13:21:13.114Z,22.01
2022-10-16T13:24:34.606Z,22.12
2022-10-16T13:27:45.979Z,22.24
2022-10-16T13:30:55.224Z,22.57
2022-10-16T13:34:02.155Z,22.57
2022-10-16T13:37:19.185Z,21.70
2022-10-16T13:40:25.443Z,21.47
2022-10-16T13:43:33.912Z,21.27
2022-10-16T13:46:36.872Z,21.30
2022-10-16T13:49:41.116Z,21.53
2022-10-16T13:52:44.453Z,21.54
2022-10-16T13:55:47.707Z,21.81
2022-10-16T13:59:01.424Z,21.81
2022-10-16T14:02:20.818Z,21.98
2022-10-16T14:05:25.584Z,21.57
2022-10-16T14:08:30.868Z,21.42
2022-10-16T14:11:34.820Z,21.70
2022-10-16T14:14:44.778Z,21.32
2022-10-16T14:17:52.416Z,21.52
2022-10-16T14:21:01.529Z,21.51
2022-10-16T14:24:13.680Z,21.47
2022-10-16T14:27:31.148Z,21.50
2022-10-16T14:30:37.520Z,21.64
2022-10-16T14:33:40.480Z,21.57
2022-10-16T14:36:44.812Z,21.35
2022-10-16T14:39:51.931Z,21.30
2022-10-16T14:42:55.712Z,21.12
2022-10-16T14:45:59.509Z,20.94
2022-10-16T14:49:08.081Z,21.01
2022-10-16T14:52:13.892Z,20.77
2022-10-16T14:55:18.024Z,20.77
2022-10-16T14:58:26.240Z,20.50
2022-10-16T15:01:29.164Z,20.49
2022-10-16T15:04:32.161Z,20.53
2022-10-16T15:07:37.092Z,20.55
2022-10-16T15:10:43.368Z,20.44
2022-10-16T15:13:46.473Z,20.38
2022-10-16T15:16:49.387Z,20.10
2022-10-16T15:19:52.478Z,19.82
2022-10-16T15:22:56.759Z,19.89
2022-10-16T15:26:00.398Z,19.89
2022-10-16T15:29:03.545Z,19.64
2022-10-16T15:32:06.886Z,19.58
2022-10-16T15:35:13.295Z,19.56
2022-10-16T15:38:19.639Z,19.54
2022-10-16T15:41:23.264Z,19.42
2022-10-16T15:44:30.491Z,19.11
2022-10-16T15:47:33.724Z,18.95
2022-10-16T15:50:39.909Z,18.88
2022-10-16T15:53:44.603Z,18.85
2022-10-16T15:56:47.642Z,18.74
2022-10-16T15:59:50.633Z,18.71
2022-10-16T16:02:55.713Z,18.66
2022-10-16T16:05:59.541Z,18.52
2022-10-16T16:12:12.103Z,18.10
2022-10-16T16:15:15.100Z,17.82
2022-10-16T16:18:18.105Z,17.58
2022-10-16T16:21:21.531Z,17.28
2022-10-16T16:24:25.784Z,17.19
2022-10-16T16:27:30.754Z,17.06
2022-10-16T16:30:35.638Z,16.82
2022-10-16T16:33:38.957Z,16.58
2022-10-16T16:36:42.096Z,16.39
2022-10-16T16:39:46.344Z,16.26
2022-10-16T16:42:50.359Z,16.11
2022-10-16T16:45:53.434Z,15.92
2022-10-16T16:48:56.525Z,15.78
2022-10-16T16:51:59.661Z,15.71
2022-10-16T16:55:03.996Z,15.55
2022-10-16T16:58:07.045Z,15.45
2022-10-16T17:01:20.707Z,15.36
2022-10-16T17:04:24.455Z,15.25
2022-10-16T17:07:28.700Z,15.16
2022-10-16T17:10:33.097Z,15.05
2022-10-16T17:13:38.300Z,15.00
2022-10-16T17:16:44.628Z,14.89
2022-10-16T17:19:47.548Z,14.69
2022-10-16T17:22:50.799Z,14.60
2022-10-16T17:25:55.369Z,14.55
2022-10-16T17:29:01.134Z,14.47
2022-10-16T17:32:06.056Z,14.35
2022-10-16T17:35:09.889Z,14.27
2022-10-16T17:38:16.692Z,14.22
2022-10-16T17:41:23.037Z,14.21
2022-10-16T17:44:25.965Z,14.13
2022-10-16T17:47:29.252Z,14.09
2022-10-16T17:50:32.239Z,14.01
2022-10-16T17:53:35.827Z,13.95
2022-10-16T17:56:40.149Z,13.85
2022-10-16T17:59:43.236Z,13.78
2022-10-16T18:02:46.213Z,13.67
2022-10-16T18:05:49.207Z,13.61
2022-10-16T18:08:52.817Z,13.48
2022-10-16T18:12:00.513Z,13.40
2022-10-16T18:15:04.905Z,13.47
2022-10-16T18:18:08.373Z,13.41
2022-10-16T18:21:14.226Z,13.33
2022-10-16T18:24:18.183Z,13.41
2022-10-16T18:27:22.479Z,13.39
2022-10-16T18:30:25.407Z,13.41
2022-10-16T18:33:30.757Z,13.39
2022-10-16T18:36:35.734Z,13.30
2022-10-16T18:39:39.091Z,13.32
2022-10-16T18:42:43.959Z,13.27
2022-10-16T18:45:56.949Z,13.17
2022-10-16T18:49:01.276Z,13.16
2022-10-16T18:52:04.707Z,13.12
2022-10-16T18:55:10.415Z,13.06
2022-10-16T18:58:14.695Z,13.03
2022-10-16T19:01:21.511Z,12.98
2022-10-16T19:04:25.234Z,12.92
2022-10-16T19:07:28.574Z,12.86
2022-10-16T19:10:31.810Z,12.82
2022-10-16T19:13:36.960Z,12.82
2022-10-16T19:16:42.772Z,12.75
2022-10-16T19:19:45.799Z,12.77
2022-10-16T19:22:56.774Z,12.75
2022-10-16T19:26:04.116Z,12.78
2022-10-16T19:29:09.462Z,12.71
2022-10-16T19:32:14.439Z,12.66
2022-10-16T19:35:17.663Z,12.65
2022-10-16T19:38:21.455Z,12.61
2022-10-16T19:41:25.148Z,12.60
2022-10-16T19:44:29.506Z,12.66
2022-10-16T19:47:33.127Z,12.70
2022-10-16T19:50:36.067Z,12.76
2022-10-16T19:53:39.178Z,12.77
2022-10-16T19:57:07.798Z,12.76
2022-10-16T20:00:14.177Z,12.78
2022-10-16T20:03:17.548Z,12.74
2022-10-16T20:06:22.149Z,12.72
2022-10-16T20:09:25.078Z,12.66
2022-10-16T20:12:28.268Z,12.64
2022-10-16T20:15:32.656Z,12.58
2022-10-16T20:18:35.806Z,12.56
2022-10-16T20:21:39.093Z,12.51
2022-10-16T20:24:42.070Z,12.46
2022-10-16T20:27:45.039Z,12.46
2022-10-16T20:30:51.536Z,12.40
2022-10-16T20:33:57.938Z,12.36
2022-10-16T20:37:01.186Z,12.37
2022-10-16T20:40:04.612Z,12.34
2022-10-16T20:43:08.474Z,12.35
2022-10-16T20:46:16.183Z,12.36
2022-10-16T20:49:35.850Z,12.31
2022-10-16T20:52:39.087Z,12.30
2022-10-16T20:55:42.140Z,12.28
2022-10-16T20:58:45.769Z,12.29
2022-10-16T21:01:50.384Z,12.29
2022-10-16T21:04:53.617Z,12.31
2022-10-16T21:07:56.634Z,12.29
2022-10-16T21:10:59.564Z,12.33
2022-10-16T21:14:06.259Z,12.35
2022-10-16T21:17:10.598Z,12.36
2022-10-16T21:20:13.554Z,12.36
2022-10-16T21:23:16.486Z,12.35
2022-10-16T21:26:25.828Z,12.40
2022-10-16T21:29:29.049Z,12.38
2022-10-16T21:32:33.377Z,12.35
2022-10-16T21:35:36.393Z,12.37
2022-10-16T21:38:39.366Z,12.35
2022-10-16T21:41:44.432Z,12.40
2022-10-16T21:44:47.592Z,12.38
2022-10-16T21:47:51.903Z,12.45
2022-10-16T21:50:54.879Z,12.44
2022-10-16T21:53:57.879Z,12.42
2022-10-16T21:57:00.828Z,12.42
2022-10-16T22:00:08.829Z,12.42
2022-10-16T22:03:13.560Z,12.41
2022-10-16T22:06:19.024Z,12.38
2022-10-16T22:09:22.381Z,12.44
2022-10-16T22:12:25.302Z,12.34
2022-10-16T22:15:28.461Z,12.31
2022-10-16T22:18:33.379Z,12.29
2022-10-16T22:21:40.789Z,12.27
2022-10-16T22:24:43.713Z,12.24
2022-10-16T22:27:46.700Z,12.25
2022-10-16T22:30:49.668Z,12.20
2022-10-16T22:33:57.100Z,12.18
2022-10-16T22:37:00.144Z,12.10
2022-10-16T22:40:03.062Z,12.06
2022-10-16T22:43:07.516Z,12.07
2022-10-16T22:46:14.390Z,12.05
2022-10-16T22:49:20.342Z,12.04
2022-10-16T22:52:23.267Z,11.96
2022-10-16T22:55:26.180Z,11.97
2022-10-16T22:58:29.448Z,11.95
2022-10-16T23:01:35.612Z,11.94
2022-10-16T23:04:39.880Z,11.98
2022-10-16T23:07:44.781Z,12.00
2022-10-16T23:10:49.596Z,12.06
2022-10-16T23:13:52.617Z,12.09
2022-10-16T23:16:55.551Z,12.16
2022-10-16T23:19:59.779Z,12.20
2022-10-16T23:23:02.917Z,12.24
2022-10-16T23:26:10.961Z,12.30
2022-10-16T23:29:13.963Z,12.33
2022-10-16T23:32:16.860Z,12.36
2022-10-16T23:35:21.311Z,12.43
2022-10-16T23:38:24.236Z,12.43
2022-10-16T23:41:27.184Z,12.45
2022-10-16T23:44:30.110Z,12.46
2022-10-16T23:47:33.431Z,12.44
2022-10-16T23:50:37.791Z,12.53
2022-10-16T23:53:41.180Z,12.57
2022-10-16T23:56:44.158Z,12.57
2022-10-16T23:59:47.084Z,12.61
